sensor_id;sensor_type;location;lat;lon;timestamp;temperature;humidity
40023;DHT22;25713;-35.352;149.036;2023-04-03T00:00:15;16.80;89.90
40023;DHT22;25713;-35.352;149.036;2023-04-03T00:02:46;16.80;89.80
40023;DHT22;25713;-35.352;149.036;2023-04-03T00:05:15;16.80;90.00
40023;DHT22;25713;-35.352;149.036;2023-04-03T00:07:45;16.80;90.00
40023;DHT22;25713;-35.352;149.036;2023-04-03T00:10:14;16.80;90.00
40023;DHT22;25713;-35.352;149.036;2023-04-03T00:12:44;16.90;90.30
40023;DHT22;25713;-35.352;149.036;2023-04-03T00:15:13;16.80;90.10
40023;DHT22;25713;-35.352;149.036;2023-04-03T00:17:43;16.80;90.00
40023;DHT22;25713;-35.352;149.036;2023-04-03T00:20:14;16.90;89.90
40023;DHT22;25713;-35.352;149.036;2023-04-03T00:22:44;17.00;89.70
40023;DHT22;25713;-35.352;149.036;2023-04-03T00:25:13;17.00;89.70
40023;DHT22;25713;-35.352;149.036;2023-04-03T00:27:42;17.00;89.70
40023;DHT22;25713;-35.352;149.036;2023-04-03T00:30:14;17.00;89.80
40023;DHT22;25713;-35.352;149.036;2023-04-03T00:32:43;17.00;90.10
40023;DHT22;25713;-35.352;149.036;2023-04-03T00:35:14;17.10;90.10
40023;DHT22;25713;-35.352;149.036;2023-04-03T00:37:44;17.00;90.20
40023;DHT22;25713;-35.352;149.036;2023-04-03T00:40:15;17.00;90.10
40023;DHT22;25713;-35.352;149.036;2023-04-03T00:42:45;17.00;90.10
40023;DHT22;25713;-35.352;149.036;2023-04-03T00:45:28;17.00;90.00
40023;DHT22;25713;-35.352;149.036;2023-04-03T00:47:58;17.00;90.00
40023;DHT22;25713;-35.352;149.036;2023-04-03T00:50:30;17.10;90.10
40023;DHT22;25713;-35.352;149.036;2023-04-03T00:53:02;17.00;90.20
40023;DHT22;25713;-35.352;149.036;2023-04-03T00:55:32;17.10;90.30
40023;DHT22;25713;-35.352;149.036;2023-04-03T00:58:03;17.10;90.30
40023;DHT22;25713;-35.352;149.036;2023-04-03T01:00:36;17.10;90.30
40023;DHT22;25713;-35.352;149.036;2023-04-03T01:03:06;17.10;90.30
40023;DHT22;25713;-35.352;149.036;2023-04-03T01:05:38;17.00;90.20
40023;DHT22;25713;-35.352;149.036;2023-04-03T01:08:08;17.00;90.30
40023;DHT22;25713;-35.352;149.036;2023-04-03T01:10:38;17.10;90.40
40023;DHT22;25713;-35.352;149.036;2023-04-03T01:13:20;17.10;90.40
40023;DHT22;25713;-35.352;149.036;2023-04-03T01:15:50;17.20;90.20
40023;DHT22;25713;-35.352;149.036;2023-04-03T01:18:19;17.30;90.20
40023;DHT22;25713;-35.352;149.036;2023-04-03T01:21:18;17.40;90.10
40023;DHT22;25713;-35.352;149.036;2023-04-03T01:26:49;17.60;90.00
40023;DHT22;25713;-35.352;149.036;2023-04-03T01:29:19;17.60;89.80
40023;DHT22;25713;-35.352;149.036;2023-04-03T01:31:52;17.70;89.50
40023;DHT22;25713;-35.352;149.036;2023-04-03T01:34:22;17.70;89.40
40023;DHT22;25713;-35.352;149.036;2023-04-03T01:36:52;17.80;89.40
40023;DHT22;25713;-35.352;149.036;2023-04-03T01:39:23;17.80;89.50
40023;DHT22;25713;-35.352;149.036;2023-04-03T01:41:53;17.80;89.70
40023;DHT22;25713;-35.352;149.036;2023-04-03T01:44:32;17.90;89.20
40023;DHT22;25713;-35.352;149.036;2023-04-03T01:47:06;17.90;89.80
40023;DHT22;25713;-35.352;149.036;2023-04-03T01:49:36;17.90;87.90
40023;DHT22;25713;-35.352;149.036;2023-04-03T01:52:06;17.90;88.40
40023;DHT22;25713;-35.352;149.036;2023-04-03T01:54:35;17.90;88.70
40023;DHT22;25713;-35.352;149.036;2023-04-03T01:57:05;18.00;88.80
40023;DHT22;25713;-35.352;149.036;2023-04-03T01:59:35;18.00;88.90
40023;DHT22;25713;-35.352;149.036;2023-04-03T02:02:07;18.10;88.90
40023;DHT22;25713;-35.352;149.036;2023-04-03T02:04:36;18.10;88.90
40023;DHT22;25713;-35.352;149.036;2023-04-03T02:07:06;18.10;88.50
40023;DHT22;25713;-35.352;149.036;2023-04-03T02:09:35;18.10;88.10
40023;DHT22;25713;-35.352;149.036;2023-04-03T02:12:05;18.00;88.10
40023;DHT22;25713;-35.352;149.036;2023-04-03T02:14:35;18.00;88.10
40023;DHT22;25713;-35.352;149.036;2023-04-03T02:17:06;18.00;87.90
40023;DHT22;25713;-35.352;149.036;2023-04-03T02:19:36;17.90;87.70
40023;DHT22;25713;-35.352;149.036;2023-04-03T02:22:05;17.90;89.30
40023;DHT22;25713;-35.352;149.036;2023-04-03T02:24:35;17.90;89.30
40023;DHT22;25713;-35.352;149.036;2023-04-03T02:27:04;17.90;89.70
40023;DHT22;25713;-35.352;149.036;2023-04-03T02:29:34;18.00;89.70
40023;DHT22;25713;-35.352;149.036;2023-04-03T02:32:05;18.00;89.00
40023;DHT22;25713;-35.352;149.036;2023-04-03T02:34:34;18.00;89.40
40023;DHT22;25713;-35.352;149.036;2023-04-03T02:37:04;18.00;88.60
40023;DHT22;25713;-35.352;149.036;2023-04-03T02:39:34;18.00;88.70
40023;DHT22;25713;-35.352;149.036;2023-04-03T02:42:04;18.00;89.00
40023;DHT22;25713;-35.352;149.036;2023-04-03T02:44:34;18.00;89.30
40023;DHT22;25713;-35.352;149.036;2023-04-03T02:47:05;18.00;89.40
40023;DHT22;25713;-35.352;149.036;2023-04-03T02:49:35;18.00;89.40
40023;DHT22;25713;-35.352;149.036;2023-04-03T02:52:05;18.00;88.90
40023;DHT22;25713;-35.352;149.036;2023-04-03T02:54:34;18.10;88.90
40023;DHT22;25713;-35.352;149.036;2023-04-03T02:57:07;18.00;88.90
40023;DHT22;25713;-35.352;149.036;2023-04-03T02:59:37;18.00;89.00
40023;DHT22;25713;-35.352;149.036;2023-04-03T03:02:08;18.00;89.00
40023;DHT22;25713;-35.352;149.036;2023-04-03T03:04:38;18.00;89.00
40023;DHT22;25713;-35.352;149.036;2023-04-03T03:07:07;18.00;89.00
40023;DHT22;25713;-35.352;149.036;2023-04-03T03:09:37;18.00;89.20
40023;DHT22;25713;-35.352;149.036;2023-04-03T03:12:07;18.00;89.00
40023;DHT22;25713;-35.352;149.036;2023-04-03T03:14:36;18.00;88.90
40023;DHT22;25713;-35.352;149.036;2023-04-03T03:17:08;18.00;88.90
40023;DHT22;25713;-35.352;149.036;2023-04-03T03:19:37;18.10;88.80
40023;DHT22;25713;-35.352;149.036;2023-04-03T03:22:06;18.10;88.50
40023;DHT22;25713;-35.352;149.036;2023-04-03T03:24:36;18.20;88.80
40023;DHT22;25713;-35.352;149.036;2023-04-03T03:27:05;18.20;88.40
40023;DHT22;25713;-35.352;149.036;2023-04-03T03:29:34;18.30;88.20
40023;DHT22;25713;-35.352;149.036;2023-04-03T03:32:08;18.20;88.60
40023;DHT22;25713;-35.352;149.036;2023-04-03T03:34:38;18.30;88.60
40023;DHT22;25713;-35.352;149.036;2023-04-03T03:37:07;18.30;88.30
40023;DHT22;25713;-35.352;149.036;2023-04-03T03:39:37;18.30;88.10
40023;DHT22;25713;-35.352;149.036;2023-04-03T03:42:06;18.30;88.80
40023;DHT22;25713;-35.352;149.036;2023-04-03T03:44:36;18.30;89.10
40023;DHT22;25713;-35.352;149.036;2023-04-03T03:47:07;18.40;89.30
40023;DHT22;25713;-35.352;149.036;2023-04-03T03:49:37;18.40;88.10
40023;DHT22;25713;-35.352;149.036;2023-04-03T03:52:06;18.40;88.00
40023;DHT22;25713;-35.352;149.036;2023-04-03T03:54:36;18.40;87.90
40023;DHT22;25713;-35.352;149.036;2023-04-03T03:57:05;18.40;87.60
40023;DHT22;25713;-35.352;149.036;2023-04-03T03:59:35;18.40;88.30
40023;DHT22;25713;-35.352;149.036;2023-04-03T04:02:04;18.40;88.40
40023;DHT22;25713;-35.352;149.036;2023-04-03T04:04:36;18.40;87.80
40023;DHT22;25713;-35.352;149.036;2023-04-03T04:07:07;18.40;88.00
40023;DHT22;25713;-35.352;149.036;2023-04-03T04:09:37;18.40;85.80
40023;DHT22;25713;-35.352;149.036;2023-04-03T04:12:06;18.40;87.60
40023;DHT22;25713;-35.352;149.036;2023-04-03T04:14:37;18.30;88.60
40023;DHT22;25713;-35.352;149.036;2023-04-03T04:17:09;18.30;87.60
40023;DHT22;25713;-35.352;149.036;2023-04-03T04:19:41;18.30;84.70
40023;DHT22;25713;-35.352;149.036;2023-04-03T04:22:11;18.30;85.40
40023;DHT22;25713;-35.352;149.036;2023-04-03T04:24:40;18.30;84.80
40023;DHT22;25713;-35.352;149.036;2023-04-03T04:27:11;18.30;87.50
40023;DHT22;25713;-35.352;149.036;2023-04-03T04:29:40;18.30;88.60
40023;DHT22;25713;-35.352;149.036;2023-04-03T04:32:10;18.40;88.30
40023;DHT22;25713;-35.352;149.036;2023-04-03T04:34:42;18.40;86.80
40023;DHT22;25713;-35.352;149.036;2023-04-03T04:37:11;18.40;87.60
40023;DHT22;25713;-35.352;149.036;2023-04-03T04:39:41;18.50;87.10
40023;DHT22;25713;-35.352;149.036;2023-04-03T04:42:10;18.40;88.30
40023;DHT22;25713;-35.352;149.036;2023-04-03T04:44:40;18.40;89.50
40023;DHT22;25713;-35.352;149.036;2023-04-03T04:47:10;18.40;89.10
40023;DHT22;25713;-35.352;149.036;2023-04-03T04:49:41;18.40;88.30
40023;DHT22;25713;-35.352;149.036;2023-04-03T04:52:11;18.40;88.50
40023;DHT22;25713;-35.352;149.036;2023-04-03T04:54:42;18.40;89.20
40023;DHT22;25713;-35.352;149.036;2023-04-03T04:57:12;18.40;88.70
40023;DHT22;25713;-35.352;149.036;2023-04-03T04:59:42;18.40;87.50
40023;DHT22;25713;-35.352;149.036;2023-04-03T05:02:11;18.40;88.90
40023;DHT22;25713;-35.352;149.036;2023-04-03T05:04:44;18.40;89.40
40023;DHT22;25713;-35.352;149.036;2023-04-03T05:07:20;18.40;88.20
40023;DHT22;25713;-35.352;149.036;2023-04-03T05:09:49;18.40;88.70
40023;DHT22;25713;-35.352;149.036;2023-04-03T05:12:20;18.40;88.50
40023;DHT22;25713;-35.352;149.036;2023-04-03T05:14:55;18.40;87.60
40023;DHT22;25713;-35.352;149.036;2023-04-03T05:17:26;18.40;88.00
40023;DHT22;25713;-35.352;149.036;2023-04-03T05:19:58;18.40;89.60
40023;DHT22;25713;-35.352;149.036;2023-04-03T05:22:29;18.30;87.30
40023;DHT22;25713;-35.352;149.036;2023-04-03T05:25:05;18.40;89.40
40023;DHT22;25713;-35.352;149.036;2023-04-03T05:27:35;18.40;90.20
40023;DHT22;25713;-35.352;149.036;2023-04-03T05:30:05;18.40;90.20
40023;DHT22;25713;-35.352;149.036;2023-04-03T05:32:36;18.40;90.30
40023;DHT22;25713;-35.352;149.036;2023-04-03T05:35:17;18.40;90.40
40023;DHT22;25713;-35.352;149.036;2023-04-03T05:37:50;18.40;88.90
40023;DHT22;25713;-35.352;149.036;2023-04-03T05:40:20;18.40;90.10
40023;DHT22;25713;-35.352;149.036;2023-04-03T05:42:53;18.40;89.10
40023;DHT22;25713;-35.352;149.036;2023-04-03T05:45:24;18.40;87.60
40023;DHT22;25713;-35.352;149.036;2023-04-03T05:47:54;18.40;88.20
40023;DHT22;25713;-35.352;149.036;2023-04-03T05:50:26;18.50;89.00
40023;DHT22;25713;-35.352;149.036;2023-04-03T05:52:58;18.50;89.70
40023;DHT22;25713;-35.352;149.036;2023-04-03T05:55:30;18.50;90.10
40023;DHT22;25713;-35.352;149.036;2023-04-03T05:57:59;18.50;88.10
40023;DHT22;25713;-35.352;149.036;2023-04-03T06:00:29;18.60;86.50
40023;DHT22;25713;-35.352;149.036;2023-04-03T06:03:03;18.60;88.60
40023;DHT22;25713;-35.352;149.036;2023-04-03T06:05:35;18.50;90.00
40023;DHT22;25713;-35.352;149.036;2023-04-03T06:08:04;18.50;89.60
40023;DHT22;25713;-35.352;149.036;2023-04-03T06:10:35;18.50;87.80
40023;DHT22;25713;-35.352;149.036;2023-04-03T06:13:05;18.60;88.50
40023;DHT22;25713;-35.352;149.036;2023-04-03T06:15:34;18.60;88.70
40023;DHT22;25713;-35.352;149.036;2023-04-03T06:18:04;18.60;89.00
40023;DHT22;25713;-35.352;149.036;2023-04-03T06:20:35;18.60;89.00
40023;DHT22;25713;-35.352;149.036;2023-04-03T06:23:05;18.60;90.00
40023;DHT22;25713;-35.352;149.036;2023-04-03T06:25:34;18.60;89.40
40023;DHT22;25713;-35.352;149.036;2023-04-03T06:28:04;18.50;88.50
40023;DHT22;25713;-35.352;149.036;2023-04-03T06:30:33;18.60;88.00
40023;DHT22;25713;-35.352;149.036;2023-04-03T06:33:03;18.50;86.70
40023;DHT22;25713;-35.352;149.036;2023-04-03T06:35:35;18.50;87.30
40023;DHT22;25713;-35.352;149.036;2023-04-03T06:38:04;18.50;86.50
40023;DHT22;25713;-35.352;149.036;2023-04-03T06:40:34;18.50;86.40
40023;DHT22;25713;-35.352;149.036;2023-04-03T06:43:04;18.50;87.40
40023;DHT22;25713;-35.352;149.036;2023-04-03T06:45:34;18.50;87.30
40023;DHT22;25713;-35.352;149.036;2023-04-03T06:48:03;18.50;88.90
40023;DHT22;25713;-35.352;149.036;2023-04-03T06:50:35;18.50;88.90
40023;DHT22;25713;-35.352;149.036;2023-04-03T06:53:04;18.50;90.00
40023;DHT22;25713;-35.352;149.036;2023-04-03T06:55:34;18.50;90.00
40023;DHT22;25713;-35.352;149.036;2023-04-03T06:58:03;18.50;90.20
40023;DHT22;25713;-35.352;149.036;2023-04-03T07:00:33;18.50;90.10
40023;DHT22;25713;-35.352;149.036;2023-04-03T07:03:02;18.50;90.40
40023;DHT22;25713;-35.352;149.036;2023-04-03T07:05:34;18.50;90.20
40023;DHT22;25713;-35.352;149.036;2023-04-03T07:08:04;18.50;90.50
40023;DHT22;25713;-35.352;149.036;2023-04-03T07:10:33;18.50;90.60
40023;DHT22;25713;-35.352;149.036;2023-04-03T07:13:02;18.50;90.80
40023;DHT22;25713;-35.352;149.036;2023-04-03T07:15:32;18.50;90.80
40023;DHT22;25713;-35.352;149.036;2023-04-03T07:18:01;18.50;90.30
40023;DHT22;25713;-35.352;149.036;2023-04-03T07:20:31;18.50;90.70
40023;DHT22;25713;-35.352;149.036;2023-04-03T07:23:02;18.50;90.70
40023;DHT22;25713;-35.352;149.036;2023-04-03T07:25:32;18.50;90.90
40023;DHT22;25713;-35.352;149.036;2023-04-03T07:28:04;18.40;90.90
40023;DHT22;25713;-35.352;149.036;2023-04-03T07:30:33;18.50;91.00
40023;DHT22;25713;-35.352;149.036;2023-04-03T07:33:03;18.50;90.70
40023;DHT22;25713;-35.352;149.036;2023-04-03T07:35:33;18.50;90.50
40023;DHT22;25713;-35.352;149.036;2023-04-03T07:38:04;18.60;90.80
40023;DHT22;25713;-35.352;149.036;2023-04-03T07:40:33;18.60;90.60
40023;DHT22;25713;-35.352;149.036;2023-04-03T07:43:03;18.60;90.20
40023;DHT22;25713;-35.352;149.036;2023-04-03T07:45:34;18.70;90.80
40023;DHT22;25713;-35.352;149.036;2023-04-03T07:48:04;18.70;91.30
40023;DHT22;25713;-35.352;149.036;2023-04-03T07:50:33;18.70;90.80
40023;DHT22;25713;-35.352;149.036;2023-04-03T07:53:05;18.60;90.60
40023;DHT22;25713;-35.352;149.036;2023-04-03T07:55:34;18.60;90.40
40023;DHT22;25713;-35.352;149.036;2023-04-03T07:58:04;18.60;90.70
40023;DHT22;25713;-35.352;149.036;2023-04-03T08:00:33;18.50;90.70
40023;DHT22;25713;-35.352;149.036;2023-04-03T08:03:03;18.50;90.80
40023;DHT22;25713;-35.352;149.036;2023-04-03T08:05:34;18.50;90.90
40023;DHT22;25713;-35.352;149.036;2023-04-03T08:08:07;18.50;90.90
40023;DHT22;25713;-35.352;149.036;2023-04-03T08:10:37;18.50;91.10
40023;DHT22;25713;-35.352;149.036;2023-04-03T08:13:07;18.50;91.10
40023;DHT22;25713;-35.352;149.036;2023-04-03T08:15:37;18.50;91.30
40023;DHT22;25713;-35.352;149.036;2023-04-03T08:18:06;18.40;91.10
40023;DHT22;25713;-35.352;149.036;2023-04-03T08:20:37;18.40;91.10
40023;DHT22;25713;-35.352;149.036;2023-04-03T08:23:08;18.40;91.20
40023;DHT22;25713;-35.352;149.036;2023-04-03T08:25:39;18.30;91.30
40023;DHT22;25713;-35.352;149.036;2023-04-03T08:28:10;18.40;91.50
40023;DHT22;25713;-35.352;149.036;2023-04-03T08:30:40;18.30;91.40
40023;DHT22;25713;-35.352;149.036;2023-04-03T08:33:10;18.30;91.50
40023;DHT22;25713;-35.352;149.036;2023-04-03T08:35:41;18.30;91.50
40023;DHT22;25713;-35.352;149.036;2023-04-03T08:38:12;18.30;91.50
40023;DHT22;25713;-35.352;149.036;2023-04-03T08:40:42;18.30;91.40
40023;DHT22;25713;-35.352;149.036;2023-04-03T08:43:27;18.30;91.50
40023;DHT22;25713;-35.352;149.036;2023-04-03T08:46:01;18.30;91.50
40023;DHT22;25713;-35.352;149.036;2023-04-03T08:48:34;18.30;91.60
40023;DHT22;25713;-35.352;149.036;2023-04-03T08:51:11;18.30;91.70
40023;DHT22;25713;-35.352;149.036;2023-04-03T08:53:45;18.30;91.80
40023;DHT22;25713;-35.352;149.036;2023-04-03T08:56:19;18.30;91.80
40023;DHT22;25713;-35.352;149.036;2023-04-03T08:58:51;18.30;91.90
40023;DHT22;25713;-35.352;149.036;2023-04-03T09:01:24;18.30;91.90
40023;DHT22;25713;-35.352;149.036;2023-04-03T09:03:54;18.20;91.90
40023;DHT22;25713;-35.352;149.036;2023-04-03T09:06:26;18.30;92.00
40023;DHT22;25713;-35.352;149.036;2023-04-03T09:09:10;18.20;92.10
40023;DHT22;25713;-35.352;149.036;2023-04-03T09:11:50;18.20;92.10
40023;DHT22;25713;-35.352;149.036;2023-04-03T09:14:28;18.20;92.10
40023;DHT22;25713;-35.352;149.036;2023-04-03T09:17:06;18.20;92.20
40023;DHT22;25713;-35.352;149.036;2023-04-03T09:19:41;18.10;92.30
40023;DHT22;25713;-35.352;149.036;2023-04-03T09:22:18;18.20;92.30
40023;DHT22;25713;-35.352;149.036;2023-04-03T09:24:55;18.20;92.20
40023;DHT22;25713;-35.352;149.036;2023-04-03T09:27:26;18.20;92.30
40023;DHT22;25713;-35.352;149.036;2023-04-03T09:29:57;18.20;92.40
40023;DHT22;25713;-35.352;149.036;2023-04-03T09:32:28;18.20;92.40
40023;DHT22;25713;-35.352;149.036;2023-04-03T09:35:01;18.20;92.40
40023;DHT22;25713;-35.352;149.036;2023-04-03T09:37:39;18.10;92.40
40023;DHT22;25713;-35.352;149.036;2023-04-03T09:43:29;18.10;92.50
40023;DHT22;25713;-35.352;149.036;2023-04-03T09:46:18;18.20;92.50
40023;DHT22;25713;-35.352;149.036;2023-04-03T09:48:57;18.20;92.50
40023;DHT22;25713;-35.352;149.036;2023-04-03T09:51:27;18.20;92.50
40023;DHT22;25713;-35.352;149.036;2023-04-03T09:54:00;18.10;92.60
40023;DHT22;25713;-35.352;149.036;2023-04-03T09:56:51;18.10;92.50
40023;DHT22;25713;-35.352;149.036;2023-04-03T09:59:23;18.10;92.60
40023;DHT22;25713;-35.352;149.036;2023-04-03T10:01:59;18.10;92.60
40023;DHT22;25713;-35.352;149.036;2023-04-03T10:04:38;18.10;92.60
40023;DHT22;25713;-35.352;149.036;2023-04-03T10:07:29;18.10;92.60
40023;DHT22;25713;-35.352;149.036;2023-04-03T10:10:01;18.10;92.70
40023;DHT22;25713;-35.352;149.036;2023-04-03T10:12:31;18.10;92.70
40023;DHT22;25713;-35.352;149.036;2023-04-03T10:15:02;18.10;92.70
40023;DHT22;25713;-35.352;149.036;2023-04-03T10:17:41;18.10;92.80
40023;DHT22;25713;-35.352;149.036;2023-04-03T10:20:26;18.00;92.80
40023;DHT22;25713;-35.352;149.036;2023-04-03T10:23:05;18.00;93.00
40023;DHT22;25713;-35.352;149.036;2023-04-03T10:25:45;18.00;92.90
40023;DHT22;25713;-35.352;149.036;2023-04-03T10:28:20;18.10;92.80
40023;DHT22;25713;-35.352;149.036;2023-04-03T10:31:01;18.10;92.70
40023;DHT22;25713;-35.352;149.036;2023-04-03T10:33:45;18.10;92.60
40023;DHT22;25713;-35.352;149.036;2023-04-03T10:36:26;18.10;92.60
40023;DHT22;25713;-35.352;149.036;2023-04-03T10:39:02;18.10;92.60
40023;DHT22;25713;-35.352;149.036;2023-04-03T10:41:45;18.10;92.70
40023;DHT22;25713;-35.352;149.036;2023-04-03T10:44:23;18.10;92.70
40023;DHT22;25713;-35.352;149.036;2023-04-03T10:47:05;18.10;92.60
40023;DHT22;25713;-35.352;149.036;2023-04-03T10:49:45;18.10;93.10
40023;DHT22;25713;-35.352;149.036;2023-04-03T10:52:21;18.10;92.80
40023;DHT22;25713;-35.352;149.036;2023-04-03T10:54:59;18.10;92.70
40023;DHT22;25713;-35.352;149.036;2023-04-03T10:57:33;18.10;92.60
40023;DHT22;25713;-35.352;149.036;2023-04-03T11:00:05;18.10;92.60
40023;DHT22;25713;-35.352;149.036;2023-04-03T11:02:37;18.20;92.80
40023;DHT22;25713;-35.352;149.036;2023-04-03T11:05:18;18.10;92.70
40023;DHT22;25713;-35.352;149.036;2023-04-03T11:07:53;18.10;92.70
40023;DHT22;25713;-35.352;149.036;2023-04-03T11:10:39;18.10;92.70
40023;DHT22;25713;-35.352;149.036;2023-04-03T11:13:15;18.10;92.80
40023;DHT22;25713;-35.352;149.036;2023-04-03T11:15:46;18.10;92.70
40023;DHT22;25713;-35.352;149.036;2023-04-03T11:18:21;18.20;92.80
40023;DHT22;25713;-35.352;149.036;2023-04-03T11:21:00;18.10;92.60
40023;DHT22;25713;-35.352;149.036;2023-04-03T11:23:33;18.10;92.80
40023;DHT22;25713;-35.352;149.036;2023-04-03T11:26:10;18.10;92.80
40023;DHT22;25713;-35.352;149.036;2023-04-03T11:28:40;18.00;92.70
40023;DHT22;25713;-35.352;149.036;2023-04-03T11:31:37;18.00;92.90
40023;DHT22;25713;-35.352;149.036;2023-04-03T11:34:20;18.00;92.80
40023;DHT22;25713;-35.352;149.036;2023-04-03T11:36:52;18.00;92.80
40023;DHT22;25713;-35.352;149.036;2023-04-03T11:39:22;18.10;93.10
40023;DHT22;25713;-35.352;149.036;2023-04-03T11:41:52;18.00;92.90
40023;DHT22;25713;-35.352;149.036;2023-04-03T11:44:35;18.00;93.00
40023;DHT22;25713;-35.352;149.036;2023-04-03T11:47:05;18.10;92.90
40023;DHT22;25713;-35.352;149.036;2023-04-03T11:49:57;18.10;92.90
40023;DHT22;25713;-35.352;149.036;2023-04-03T11:52:57;18.00;92.90
40023;DHT22;25713;-35.352;149.036;2023-04-03T11:58:31;18.10;92.90
40023;DHT22;25713;-35.352;149.036;2023-04-03T12:01:08;18.10;92.80
40023;DHT22;25713;-35.352;149.036;2023-04-03T12:12:57;18.10;92.90
40023;DHT22;25713;-35.352;149.036;2023-04-03T12:15:44;18.10;92.80
40023;DHT22;25713;-35.352;149.036;2023-04-03T12:21:19;18.10;93.00
40023;DHT22;25713;-35.352;149.036;2023-04-03T12:24:01;18.10;92.90
40023;DHT22;25713;-35.352;149.036;2023-04-03T12:26:35;18.10;92.90
40023;DHT22;25713;-35.352;149.036;2023-04-03T12:29:16;18.10;93.00
40023;DHT22;25713;-35.352;149.036;2023-04-03T12:31:48;18.10;92.90
40023;DHT22;25713;-35.352;149.036;2023-04-03T12:34:45;18.10;92.80
40023;DHT22;25713;-35.352;149.036;2023-04-03T12:37:32;18.10;92.80
40023;DHT22;25713;-35.352;149.036;2023-04-03T12:40:15;18.10;92.80
40023;DHT22;25713;-35.352;149.036;2023-04-03T12:43:10;18.10;92.80
40023;DHT22;25713;-35.352;149.036;2023-04-03T12:45:47;18.10;92.80
40023;DHT22;25713;-35.352;149.036;2023-04-03T12:48:20;18.10;92.80
40023;DHT22;25713;-35.352;149.036;2023-04-03T12:50:51;18.10;92.80
40023;DHT22;25713;-35.352;149.036;2023-04-03T12:53:23;18.10;92.90
40023;DHT22;25713;-35.352;149.036;2023-04-03T12:55:55;18.10;93.00
40023;DHT22;25713;-35.352;149.036;2023-04-03T12:58:26;18.10;93.00
40023;DHT22;25713;-35.352;149.036;2023-04-03T13:01:09;18.10;93.00
40023;DHT22;25713;-35.352;149.036;2023-04-03T13:03:39;18.10;93.00
40023;DHT22;25713;-35.352;149.036;2023-04-03T13:06:17;18.10;93.00
40023;DHT22;25713;-35.352;149.036;2023-04-03T13:08:52;18.10;93.00
40023;DHT22;25713;-35.352;149.036;2023-04-03T13:11:22;18.10;93.00
40023;DHT22;25713;-35.352;149.036;2023-04-03T13:13:58;18.10;92.90
40023;DHT22;25713;-35.352;149.036;2023-04-03T13:16:29;18.10;92.90
40023;DHT22;25713;-35.352;149.036;2023-04-03T13:18:59;18.10;93.00
40023;DHT22;25713;-35.352;149.036;2023-04-03T13:21:29;18.10;93.10
40023;DHT22;25713;-35.352;149.036;2023-04-03T13:24:01;18.10;93.10
40023;DHT22;25713;-35.352;149.036;2023-04-03T13:26:33;18.10;93.10
40023;DHT22;25713;-35.352;149.036;2023-04-03T13:29:06;18.10;93.20
40023;DHT22;25713;-35.352;149.036;2023-04-03T13:31:38;18.10;93.20
40023;DHT22;25713;-35.352;149.036;2023-04-03T13:34:10;18.00;93.10
40023;DHT22;25713;-35.352;149.036;2023-04-03T13:36:41;18.10;93.10
40023;DHT22;25713;-35.352;149.036;2023-04-03T13:39:24;18.10;93.20
40023;DHT22;25713;-35.352;149.036;2023-04-03T13:41:54;18.10;93.20
40023;DHT22;25713;-35.352;149.036;2023-04-03T13:44:33;18.10;93.30
40023;DHT22;25713;-35.352;149.036;2023-04-03T13:47:17;18.10;93.30
40023;DHT22;25713;-35.352;149.036;2023-04-03T13:49:58;18.10;93.30
40023;DHT22;25713;-35.352;149.036;2023-04-03T13:52:31;18.10;93.30
40023;DHT22;25713;-35.352;149.036;2023-04-03T13:55:03;18.00;93.20
40023;DHT22;25713;-35.352;149.036;2023-04-03T13:57:51;18.00;93.10
40023;DHT22;25713;-35.352;149.036;2023-04-03T14:00:28;18.00;93.20
40023;DHT22;25713;-35.352;149.036;2023-04-03T14:03:00;18.00;93.20
40023;DHT22;25713;-35.352;149.036;2023-04-03T14:05:29;18.00;93.10
40023;DHT22;25713;-35.352;149.036;2023-04-03T14:07:59;18.00;93.10
40023;DHT22;25713;-35.352;149.036;2023-04-03T14:10:28;18.00;93.10
40023;DHT22;25713;-35.352;149.036;2023-04-03T14:12:58;18.10;93.10
40023;DHT22;25713;-35.352;149.036;2023-04-03T14:15:29;18.00;93.00
40023;DHT22;25713;-35.352;149.036;2023-04-03T14:18:01;18.00;93.20
40023;DHT22;25713;-35.352;149.036;2023-04-03T14:20:30;18.00;93.20
40023;DHT22;25713;-35.352;149.036;2023-04-03T14:23:00;18.00;93.30
40023;DHT22;25713;-35.352;149.036;2023-04-03T14:25:29;18.00;93.20
40023;DHT22;25713;-35.352;149.036;2023-04-03T14:27:59;18.00;93.20
40023;DHT22;25713;-35.352;149.036;2023-04-03T14:30:30;18.00;93.10
40023;DHT22;25713;-35.352;149.036;2023-04-03T14:33:02;18.00;93.00
40023;DHT22;25713;-35.352;149.036;2023-04-03T14:35:31;18.00;93.00
40023;DHT22;25713;-35.352;149.036;2023-04-03T14:38:01;18.00;93.00
40023;DHT22;25713;-35.352;149.036;2023-04-03T14:40:30;18.00;93.10
40023;DHT22;25713;-35.352;149.036;2023-04-03T14:43:00;18.00;93.10
40023;DHT22;25713;-35.352;149.036;2023-04-03T14:45:29;18.00;93.00
40023;DHT22;25713;-35.352;149.036;2023-04-03T14:48:02;18.00;93.10
40023;DHT22;25713;-35.352;149.036;2023-04-03T15:51:43;17.70;93.70
40023;DHT22;25713;-35.352;149.036;2023-04-03T15:54:13;17.70;93.90
40023;DHT22;25713;-35.352;149.036;2023-04-03T15:56:42;17.70;94.00
40023;DHT22;25713;-35.352;149.036;2023-04-03T15:59:12;17.80;94.10
40023;DHT22;25713;-35.352;149.036;2023-04-03T16:01:41;17.70;94.00
40023;DHT22;25713;-35.352;149.036;2023-04-03T16:04:11;17.80;94.10
40023;DHT22;25713;-35.352;149.036;2023-04-03T16:06:42;17.70;94.00
40023;DHT22;25713;-35.352;149.036;2023-04-03T16:09:12;17.80;93.90
40023;DHT22;25713;-35.352;149.036;2023-04-03T16:11:41;17.80;93.90
40023;DHT22;25713;-35.352;149.036;2023-04-03T16:14:11;17.80;93.80
40023;DHT22;25713;-35.352;149.036;2023-04-03T16:16:40;17.90;93.80
40023;DHT22;25713;-35.352;149.036;2023-04-03T16:19:10;17.80;93.80
40023;DHT22;25713;-35.352;149.036;2023-04-03T16:21:42;17.90;93.80
40023;DHT22;25713;-35.352;149.036;2023-04-03T16:24:11;17.80;93.80
40023;DHT22;25713;-35.352;149.036;2023-04-03T16:26:40;17.90;93.80
40023;DHT22;25713;-35.352;149.036;2023-04-03T16:29:10;17.90;93.80
40023;DHT22;25713;-35.352;149.036;2023-04-03T16:31:39;17.90;93.70
40023;DHT22;25713;-35.352;149.036;2023-04-03T16:34:09;17.90;93.80
40023;DHT22;25713;-35.352;149.036;2023-04-03T16:36:38;17.90;93.80
40023;DHT22;25713;-35.352;149.036;2023-04-03T16:39:09;17.90;93.70
40023;DHT22;25713;-35.352;149.036;2023-04-03T16:41:39;17.90;93.70